Time;durP1;ratioP1;P1;durP2;ratioP2;P2;SDS_P1;SDS_P2;PMS_P1;PMS_P2;Temp;Humidity;BMP_temperature;BMP_pressure;BME280_temperature;BME280_humidity;BME280_pressure;Samples;Min_cycle;Max_cycle;Signal;HPM_P1;HPM_P2
2022/10/19 00:02:51;;;;;;;6.70;2.90;;;23.20;73.80;;;;;;214810;1282;22444;-57
2022/10/19 00:08:00;;;;;;;7.60;2.90;;;23.20;74.00;;;;;;214938;1300;22580;-58
2022/10/19 00:13:04;;;;;;;7.20;2.80;;;23.20;74.00;;;;;;215164;1295;23939;-58
2022/10/19 00:18:08;;;;;;;9.50;3.20;;;23.10;73.70;;;;;;214530;1300;24852;-59
2022/10/19 00:23:11;;;;;;;6.40;2.80;;;23.10;73.60;;;;;;214930;1282;22478;-61
2022/10/19 00:28:15;;;;;;;6.90;2.60;;;23.20;74.00;;;;;;214990;1285;24203;-59
2022/10/19 00:33:21;;;;;;;4.10;2.40;;;23.10;73.50;;;;;;214962;1278;22499;-59
2022/10/19 00:38:24;;;;;;;4.30;2.60;;;23.10;74.00;;;;;;215000;1281;22476;-60
2022/10/19 00:43:30;;;;;;;8.00;2.70;;;23.10;74.00;;;;;;214802;1284;23309;-60
2022/10/19 00:48:33;;;;;;;3.70;2.70;;;23.00;73.70;;;;;;214914;1282;24272;-61
2022/10/19 00:53:37;;;;;;;6.20;2.50;;;23.10;73.80;;;;;;214848;1286;24073;-59
2022/10/19 00:58:42;;;;;;;6.20;3.00;;;23.00;73.80;;;;;;215042;1282;24369;-59
2022/10/19 01:03:45;;;;;;;4.70;2.30;;;23.00;73.80;;;;;;214973;1284;22474;-60
2022/10/19 01:08:49;;;;;;;7.80;2.60;;;23.00;74.10;;;;;;214879;1294;25515;-61
2022/10/19 01:14:01;;;;;;;3.90;2.70;;;23.00;73.70;;;;;;214668;1295;25198;-61
2022/10/19 01:19:46;;;;;;;5.50;2.70;;;23.00;73.70;;;;;;214692;1292;23838;-58
2022/10/19 01:24:54;;;;;;;5.40;2.50;;;23.00;73.70;;;;;;214239;1290;22531;-58
2022/10/19 01:30:11;;;;;;;5.70;2.50;;;23.00;74.00;;;;;;214372;1292;22506;-59
2022/10/19 01:35:18;;;;;;;4.80;2.30;;;22.90;73.60;;;;;;215054;1300;24232;-60
2022/10/19 01:41:07;;;;;;;5.20;2.20;;;22.90;73.50;;;;;;215011;1287;24332;-60
2022/10/19 01:46:41;;;;;;;6.40;2.50;;;22.90;73.60;;;;;;214859;1300;22629;-59
2022/10/19 01:51:50;;;;;;;10.30;3.60;;;22.90;73.90;;;;;;215137;1290;22496;-59
2022/10/19 01:56:57;;;;;;;8.30;2.70;;;22.90;73.90;;;;;;215034;1285;23182;-60
2022/10/19 02:02:03;;;;;;;7.10;2.50;;;22.90;73.50;;;;;;215043;1291;22533;-60
2022/10/19 02:07:08;;;;;;;6.80;2.60;;;22.90;73.40;;;;;;214973;1291;24729;-59
2022/10/19 02:12:14;;;;;;;3.00;2.10;;;22.80;73.50;;;;;;215025;1285;22495;-60
2022/10/19 02:17:25;;;;;;;6.20;2.30;;;22.80;73.80;;;;;;215026;1298;23914;-59
2022/10/19 02:22:29;;;;;;;5.10;2.10;;;22.80;73.40;;;;;;215046;1284;24298;-60
2022/10/19 02:27:33;;;;;;;4.10;2.00;;;22.80;73.40;;;;;;215077;1300;22535;-59
2022/10/19 02:32:37;;;;;;;5.30;2.30;;;22.80;73.40;;;;;;214863;1285;22536;-58
2022/10/19 02:37:41;;;;;;;3.90;1.90;;;22.80;73.40;;;;;;214969;1300;22518;-60
2022/10/19 02:42:55;;;;;;;5.60;2.70;;;22.80;73.90;;;;;;214946;1288;22850;-60
2022/10/19 02:48:09;;;;;;;7.50;2.70;;;22.70;73.50;;;;;;215068;1300;22602;-60
2022/10/19 02:53:14;;;;;;;3.00;2.20;;;22.80;73.50;;;;;;214979;1285;22462;-60
2022/10/19 02:58:17;;;;;;;3.80;2.10;;;22.80;73.50;;;;;;214684;1288;24300;-58
2022/10/19 03:03:21;;;;;;;4.20;2.10;;;22.80;73.50;;;;;;214486;1300;22643;-59
2022/10/19 03:08:24;;;;;;;6.50;2.40;;;22.70;73.30;;;;;;214596;1275;24356;-59
2022/10/19 03:13:27;;;;;;;5.70;2.60;;;22.70;73.50;;;;;;214607;1294;23879;-59
2022/10/19 03:18:31;;;;;;;4.40;2.40;;;22.70;73.30;;;;;;214709;1284;22664;-58
2022/10/19 03:23:35;;;;;;;8.90;2.70;;;22.70;73.40;;;;;;214785;1284;24208;-58
2022/10/19 03:28:39;;;;;;;4.50;2.20;;;22.70;73.30;;;;;;214959;1300;23886;-59
2022/10/19 03:33:43;;;;;;;4.70;2.20;;;22.70;73.40;;;;;;215100;1291;22479;-59
2022/10/19 03:38:49;;;;;;;3.60;1.90;;;22.70;73.70;;;;;;215161;1295;23803;-59
2022/10/19 03:43:53;;;;;;;3.70;2.10;;;22.70;73.30;;;;;;214978;1285;22512;-60
2022/10/19 03:48:56;;;;;;;4.50;2.10;;;22.70;73.50;;;;;;214982;1300;23986;-59
2022/10/19 03:54:07;;;;;;;3.80;2.10;;;22.60;73.50;;;;;;214995;1288;24708;-61
2022/10/19 03:59:13;;;;;;;5.80;2.10;;;22.60;73.40;;;;;;215148;1288;24322;-62
2022/10/19 04:04:18;;;;;;;6.20;2.50;;;22.60;73.50;;;;;;214825;1284;22516;-60
2022/10/19 04:09:22;;;;;;;6.60;2.30;;;22.60;73.90;;;;;;214930;1300;26649;-61
2022/10/19 04:14:26;;;;;;;8.10;2.60;;;22.60;73.40;;;;;;215099;1286;22489;-60
2022/10/19 04:19:35;;;;;;;6.00;2.40;;;22.60;74.10;;;;;;215118;1287;23030;-58
2022/10/19 04:24:38;;;;;;;6.40;2.40;;;22.60;73.40;;;;;;214921;1290;22488;-58
2022/10/19 04:29:42;;;;;;;9.10;2.60;;;22.60;73.60;;;;;;214858;1294;22622;-60
2022/10/19 04:34:45;;;;;;;4.10;2.10;;;22.60;74.00;;;;;;214787;1298;22483;-59
2022/10/19 04:39:49;;;;;;;2.60;1.90;;;22.60;73.40;;;;;;214949;1295;22544;-59
2022/10/19 04:44:54;;;;;;;5.40;2.70;;;22.60;73.40;;;;;;215047;1287;22621;-60
2022/10/19 04:49:57;;;;;;;4.80;2.00;;;22.60;73.80;;;;;;214806;1287;24209;-58
2022/10/19 04:55:01;;;;;;;4.90;2.40;;;22.60;73.20;;;;;;214880;1294;22876;-60
2022/10/19 05:00:05;;;;;;;8.50;2.70;;;22.50;73.50;;;;;;214976;1300;23242;-60
2022/10/19 05:05:09;;;;;;;5.40;2.20;;;22.50;73.30;;;;;;215138;1299;22883;-61
2022/10/19 05:10:13;;;;;;;3.90;2.20;;;22.50;73.40;;;;;;215008;1288;22473;-60
2022/10/19 05:15:16;;;;;;;9.50;2.80;;;22.50;73.40;;;;;;214975;1287;25204;-59
2022/10/19 05:20:21;;;;;;;5.70;2.40;;;22.50;73.40;;;;;;214661;1285;22509;-59
2022/10/19 05:25:24;;;;;;;12.40;2.60;;;22.50;73.70;;;;;;214611;1284;24220;-59
2022/10/19 05:30:27;;;;;;;9.40;2.50;;;22.50;73.20;;;;;;214419;1286;25188;-56
2022/10/19 05:35:31;;;;;;;4.00;2.40;;;22.50;73.30;;;;;;214449;1291;24395;-59
2022/10/19 05:40:34;;;;;;;4.80;2.10;;;22.50;73.30;;;;;;214543;1300;24175;-59
2022/10/19 05:45:38;;;;;;;11.20;3.30;;;22.40;73.30;;;;;;214515;1288;22486;-59
2022/10/19 05:50:52;;;;;;;7.60;2.40;;;22.40;73.20;;;;;;214472;1288;22475;-61
2022/10/19 05:55:56;;;;;;;6.70;2.10;;;22.40;73.80;;;;;;214449;1287;22515;-59
2022/10/19 06:01:02;;;;;;;7.20;2.50;;;22.40;73.20;;;;;;214500;1284;24234;-60
2022/10/19 06:06:07;;;;;;;5.50;2.00;;;22.40;73.70;;;;;;214441;1289;318628;-57
2022/10/19 06:11:24;;;;;;;4.10;1.60;;;22.40;73.90;;;;;;214528;1302;22525;-61
2022/10/19 06:16:33;;;;;;;15.40;3.10;;;22.40;74.10;;;;;;214438;1288;22750;-58
2022/10/19 06:21:37;;;;;;;5.70;1.80;;;22.40;74.60;;;;;;214862;1288;24423;-57
2022/10/19 06:26:47;;;;;;;13.00;3.60;;;22.50;74.50;;;;;;214922;1293;22471;-55
2022/10/19 06:31:52;;;;;;;28.80;4.50;;;22.40;74.60;;;;;;215005;1287;24196;-59
2022/10/19 06:36:56;;;;;;;13.30;3.20;;;22.50;75.00;;;;;;214822;1296;22476;-54
2022/10/19 06:41:59;;;;;;;8.90;2.50;;;22.50;75.10;;;;;;215097;1290;22633;-56
2022/10/19 06:47:03;;;;;;;12.30;3.50;;;22.50;76.20;;;;;;214675;1294;22521;-59
2022/10/19 06:52:07;;;;;;;10.00;2.60;;;22.50;75.20;;;;;;214957;1286;24301;-55
2022/10/19 06:57:19;;;;;;;8.40;2.60;;;22.50;75.40;;;;;;214981;1284;22484;-54
2022/10/19 07:02:22;;;;;;;7.50;2.50;;;22.50;75.70;;;;;;214922;1294;22542;-56
2022/10/19 07:07:26;;;;;;;6.80;2.30;;;22.50;74.80;;;;;;214637;1293;23964;-54
2022/10/19 07:12:29;;;;;;;10.50;3.00;;;22.40;74.20;;;;;;214683;1292;22456;-54
2022/10/19 07:17:34;;;;;;;7.20;2.60;;;22.40;74.00;;;;;;215447;1284;25504;-56
2022/10/19 07:22:38;;;;;;;12.30;2.40;;;22.40;73.90;;;;;;215050;1282;22462;-56
2022/10/19 07:27:41;;;;;;;7.70;2.60;;;22.40;74.10;;;;;;214963;1286;24747;-58
2022/10/19 07:32:45;;;;;;;5.40;2.20;;;22.40;73.60;;;;;;214962;1281;25578;-56
2022/10/19 07:37:49;;;;;;;5.80;1.90;;;22.40;73.50;;;;;;214858;1282;22461;-60
2022/10/19 07:42:53;;;;;;;5.60;2.20;;;22.40;73.70;;;;;;214933;1288;22638;-59
2022/10/19 07:47:56;;;;;;;13.90;2.80;;;22.40;73.40;;;;;;215047;1300;25212;-57
2022/10/19 07:53:04;;;;;;;3.40;2.20;;;22.30;73.60;;;;;;214991;1284;22463;-56
2022/10/19 07:58:07;;;;;;;4.90;2.10;;;22.40;73.60;;;;;;214958;1288;22476;-49
2022/10/19 08:03:11;;;;;;;9.30;2.50;;;22.40;74.00;;;;;;214136;1294;22518;-53
2022/10/19 08:08:36;;;;;;;9.00;2.60;;;22.40;73.40;;;;;;214760;1300;22468;-52
2022/10/19 08:13:40;;;;;;;13.70;2.50;;;22.50;73.40;;;;;;214850;1295;25616;-53
2022/10/19 08:18:46;;;;;;;11.70;2.60;;;22.50;73.10;;;;;;214783;1286;25577;-53
2022/10/19 08:23:50;;;;;;;4.40;2.20;;;22.50;73.00;;;;;;214510;1291;22914;-53
2022/10/19 08:29:01;;;;;;;6.20;2.10;;;22.50;72.90;;;;;;214700;1286;25489;-51
2022/10/19 08:34:05;;;;;;;6.10;2.30;;;22.50;73.00;;;;;;214819;1280;24263;-56
2022/10/19 08:39:12;;;;;;;6.90;2.10;;;22.50;73.00;;;;;;214687;1284;22601;-55
2022/10/19 08:44:32;;;;;;;7.10;2.40;;;22.50;72.60;;;;;;214703;1291;22597;-51
2022/10/19 08:49:42;;;;;;;6.20;2.10;;;22.50;73.20;;;;;;214730;1284;22467;-53
2022/10/19 08:54:54;;;;;;;6.40;2.60;;;22.50;72.80;;;;;;214923;1291;23075;-49
2022/10/19 09:00:05;;;;;;;6.40;1.90;;;22.50;72.60;;;;;;214977;1284;24208;-50
2022/10/19 09:05:48;;;;;;;8.50;2.00;;;22.50;72.50;;;;;;214869;1295;24225;-51
2022/10/19 09:10:53;;;;;;;7.10;2.30;;;22.60;72.70;;;;;;214212;1286;25320;-50
2022/10/19 09:15:57;;;;;;;5.60;2.30;;;22.60;72.50;;;;;;214848;1288;22526;-50
2022/10/19 09:21:14;;;;;;;5.80;2.00;;;22.60;72.60;;;;;;214719;1283;22567;-51
2022/10/19 09:26:21;;;;;;;4.30;1.90;;;22.60;72.10;;;;;;214761;1288;24352;-51
2022/10/19 09:31:32;;;;;;;5.40;2.50;;;22.60;72.00;;;;;;214945;1286;22633;-57
2022/10/19 09:36:44;;;;;;;6.30;2.60;;;22.60;71.70;;;;;;214773;1288;24298;-58
2022/10/19 09:41:56;;;;;;;6.40;2.30;;;22.60;71.80;;;;;;214834;1278;23616;-58
2022/10/19 09:47:15;;;;;;;5.90;2.50;;;22.60;71.60;;;;;;214822;1281;26658;-58
2022/10/19 09:52:24;;;;;;;8.20;2.80;;;22.60;71.60;;;;;;214985;1278;25449;-59
2022/10/19 09:57:29;;;;;;;5.90;2.10;;;22.60;71.50;;;;;;214765;1286;24257;-58
2022/10/19 10:02:33;;;;;;;14.90;3.40;;;22.60;71.40;;;;;;214909;1284;24258;-52
2022/10/19 10:07:43;;;;;;;10.40;2.70;;;22.60;71.30;;;;;;214682;1297;25251;-51
2022/10/19 10:12:53;;;;;;;3.40;1.90;;;22.60;71.30;;;;;;215016;1287;22676;-57
2022/10/19 10:17:57;;;;;;;3.90;1.90;;;22.60;71.10;;;;;;214870;1299;25317;-54
2022/10/19 10:23:05;;;;;;;10.70;2.70;;;22.60;71.00;;;;;;215302;1278;24709;-55
2022/10/19 10:28:23;;;;;;;3.40;1.90;;;22.60;71.10;;;;;;214877;1294;25283;-54
2022/10/19 10:33:29;;;;;;;3.90;2.00;;;22.60;71.00;;;;;;214870;1275;24135;-54
2022/10/19 10:38:52;;;;;;;2.90;1.70;;;22.60;70.80;;;;;;214796;1291;22487;-54
2022/10/19 10:44:02;;;;;;;7.40;2.20;;;22.60;71.20;;;;;;214784;1300;25421;-57
2022/10/19 10:49:18;;;;;;;4.40;2.00;;;22.70;71.20;;;;;;214546;1284;24491;-52
2022/10/19 10:54:22;;;;;;;5.10;2.00;;;22.70;70.70;;;;;;215001;1288;22860;-55
2022/10/19 10:59:48;;;;;;;3.50;2.00;;;22.70;70.90;;;;;;214908;1300;26527;-54
2022/10/19 11:05:02;;;;;;;4.40;2.20;;;22.60;70.80;;;;;;214765;1286;22505;-55
2022/10/19 11:10:29;;;;;;;6.00;1.70;;;22.60;70.80;;;;;;214810;1277;25415;-59
2022/10/19 11:15:43;;;;;;;5.50;2.20;;;22.60;70.70;;;;;;214990;1286;22470;-55
2022/10/19 11:21:18;;;;;;;13.50;2.90;;;22.60;70.70;;;;;;214853;1300;25282;-54
2022/10/19 11:26:40;;;;;;;6.30;2.10;;;22.60;70.70;;;;;;214854;1300;25323;-58
2022/10/19 11:31:48;;;;;;;7.20;2.30;;;22.60;70.50;;;;;;214792;1299;25093;-55
2022/10/19 11:37:05;;;;;;;10.90;2.70;;;22.60;70.70;;;;;;214828;1275;22480;-56
2022/10/19 11:42:22;;;;;;;7.50;2.20;;;22.60;70.50;;;;;;215057;1286;24188;-57
2022/10/19 11:47:31;;;;;;;8.90;2.20;;;22.50;70.40;;;;;;214752;1293;22497;-50
2022/10/19 11:52:56;;;;;;;8.50;2.40;;;22.60;70.30;;;;;;214732;1287;24161;-51
2022/10/19 11:58:12;;;;;;;5.10;1.80;;;22.60;70.10;;;;;;215030;1284;22457;-52
2022/10/19 12:03:37;;;;;;;4.50;2.00;;;22.50;70.50;;;;;;214837;1285;23875;-53
2022/10/19 12:09:11;;;;;;;7.90;2.10;;;22.60;70.30;;;;;;214423;1283;24269;-53
2022/10/19 12:14:28;;;;;;;3.80;1.70;;;22.50;70.20;;;;;;214786;1288;22642;-55
2022/10/19 12:19:39;;;;;;;4.20;1.70;;;22.50;70.20;;;;;;214991;1284;23192;-60
2022/10/19 12:24:42;;;;;;;4.50;1.80;;;22.50;70.10;;;;;;214805;1284;22495;-55
2022/10/19 12:29:48;;;;;;;4.30;1.80;;;22.50;70.30;;;;;;214766;1285;24330;-62
2022/10/19 12:35:08;;;;;;;5.20;1.90;;;22.50;70.00;;;;;;214843;1290;24217;-65
2022/10/19 12:40:30;;;;;;;4.80;2.00;;;22.50;70.00;;;;;;214455;1300;24057;-62
2022/10/19 12:45:40;;;;;;;5.00;1.90;;;22.50;69.90;;;;;;214957;1293;24232;-62
2022/10/19 12:50:46;;;;;;;4.80;1.80;;;22.50;69.90;;;;;;214697;1294;24146;-54
2022/10/19 12:56:00;;;;;;;6.70;2.00;;;22.50;69.90;;;;;;214797;1282;24276;-57
2022/10/19 13:01:13;;;;;;;3.70;1.80;;;22.50;69.80;;;;;;214789;1292;23928;-57
2022/10/19 13:06:23;;;;;;;3.10;1.70;;;22.50;69.80;;;;;;214851;1293;22492;-58
2022/10/19 13:11:28;;;;;;;6.00;1.80;;;22.50;69.70;;;;;;215181;1292;23876;-60
2022/10/19 13:16:57;;;;;;;4.30;1.50;;;22.50;69.60;;;;;;214706;1286;26148;-60
2022/10/19 13:22:01;;;;;;;9.50;2.30;;;22.50;69.60;;;;;;214839;1274;24392;-59
2022/10/19 13:27:04;;;;;;;2.60;1.30;;;22.50;69.60;;;;;;215102;1278;24487;-58
2022/10/19 13:32:39;;;;;;;2.80;1.50;;;22.50;69.60;;;;;;215096;1279;25392;-57
2022/10/19 13:37:43;;;;;;;5.90;2.20;;;22.50;69.50;;;;;;214756;1285;22683;-54
2022/10/19 13:42:57;;;;;;;3.40;1.50;;;22.50;69.40;;;;;;215087;1291;22533;-62
2022/10/19 13:48:12;;;;;;;6.30;1.80;;;22.50;69.50;;;;;;214918;1278;22584;-57
2022/10/19 13:53:31;;;;;;;14.80;2.60;;;22.50;69.70;;;;;;215253;1292;22471;-57
2022/10/19 13:59:21;;;;;;;11.70;2.40;;;22.50;69.80;;;;;;214763;1281;23965;-56
2022/10/19 14:05:14;;;;;;;2.10;1.10;;;22.50;69.30;;;;;;214543;1300;22475;-54
2022/10/19 14:10:21;;;;;;;2.60;1.40;;;22.50;69.10;;;;;;214684;1293;22466;-54
2022/10/19 14:15:35;;;;;;;4.00;1.70;;;22.50;69.50;;;;;;214997;1286;23907;-56
2022/10/19 14:20:41;;;;;;;9.30;2.40;;;22.40;69.00;;;;;;214915;1293;25404;-56
2022/10/19 14:26:05;;;;;;;6.60;2.30;;;22.50;68.80;;;;;;214829;1275;22474;-54
2022/10/19 14:31:17;;;;;;;7.70;2.10;;;22.50;68.20;;;;;;214844;1288;22492;-54
2022/10/19 14:36:23;;;;;;;5.10;1.80;;;22.50;68.40;;;;;;214830;1280;22533;-55
2022/10/19 14:41:32;;;;;;;7.10;2.20;;;22.40;68.60;;;;;;215059;1292;23972;-52
2022/10/19 14:46:46;;;;;;;7.60;2.40;;;22.50;68.60;;;;;;214980;1282;24653;-54
2022/10/19 14:52:01;;;;;;;5.80;2.00;;;22.40;68.40;;;;;;214788;1289;22610;-57
2022/10/19 14:57:07;;;;;;;6.60;2.00;;;22.40;68.70;;;;;;214760;1287;22734;-56
2022/10/19 15:02:24;;;;;;;4.90;1.60;;;22.40;68.80;;;;;;215000;1284;23896;-54
2022/10/19 15:07:32;;;;;;;12.60;2.50;;;22.40;68.60;;;;;;214874;1294;22598;-53
2022/10/19 15:12:41;;;;;;;14.10;2.30;;;22.50;68.70;;;;;;222142;1293;27641;-54
2022/10/19 15:18:05;;;;;;;8.70;2.40;;;22.40;68.60;;;;;;216092;1292;25271;-56
2022/10/19 15:23:33;;;;;;;10.80;2.60;;;22.50;68.50;;;;;;214666;1276;24265;-56
2022/10/19 15:28:40;;;;;;;3.30;1.70;;;22.40;68.20;;;;;;214786;1297;25344;-54
2022/10/19 15:33:48;;;;;;;9.00;2.50;;;22.40;68.30;;;;;;214738;1292;23035;-56
2022/10/19 15:39:02;;;;;;;2.60;1.30;;;22.40;68.40;;;;;;214845;1295;22539;-56
2022/10/19 15:44:40;;;;;;;5.80;1.60;;;22.40;68.40;;;;;;214783;1291;24347;-56
2022/10/19 15:49:44;;;;;;;3.30;1.50;;;22.30;68.30;;;;;;214830;1277;22465;-56
2022/10/19 15:54:49;;;;;;;5.40;1.60;;;22.30;68.80;;;;;;215142;1299;25422;-53
2022/10/19 16:00:19;;;;;;;6.80;2.00;;;22.30;68.30;;;;;;214950;1282;22506;-55
2022/10/19 16:05:23;;;;;;;12.90;2.60;;;22.30;68.80;;;;;;214797;1282;22463;-53
2022/10/19 16:10:27;;;;;;;4.00;1.50;;;22.20;68.30;;;;;;214716;1300;25231;-54
2022/10/19 16:15:38;;;;;;;6.60;1.90;;;22.20;68.30;;;;;;215186;1284;22461;-55
2022/10/19 16:20:46;;;;;;;4.30;1.90;;;22.20;68.60;;;;;;214234;1281;25443;-55
2022/10/19 16:25:56;;;;;;;6.80;2.10;;;22.20;68.10;;;;;;214346;1288;24348;-56
2022/10/19 16:30:59;;;;;;;4.80;2.00;;;22.20;68.00;;;;;;214499;1302;22788;-54
2022/10/19 16:36:06;;;;;;;6.00;2.20;;;22.10;67.90;;;;;;214330;1295;24020;-52
2022/10/19 16:41:11;;;;;;;8.90;2.40;;;22.10;67.70;;;;;;214672;1286;22461;-56
2022/10/19 16:46:20;;;;;;;8.90;2.00;;;22.20;67.00;;;;;;214249;1288;22796;-53
2022/10/19 16:51:27;;;;;;;14.90;3.10;;;22.20;66.40;;;;;;214471;1286;22470;-54
2022/10/19 16:56:43;;;;;;;20.30;3.80;;;22.20;66.50;;;;;;214401;1292;25524;-54
2022/10/19 17:01:47;;;;;;;8.30;2.80;;;22.20;65.80;;;;;;214408;1284;22530;-52
2022/10/19 17:06:50;;;;;;;9.80;2.70;;;22.30;67.60;;;;;;214341;1303;23985;-55
2022/10/19 17:12:00;;;;;;;8.90;2.30;;;22.30;68.50;;;;;;214342;1284;25361;-53
2022/10/19 17:17:15;;;;;;;11.00;2.50;;;22.30;68.40;;;;;;214290;1291;22476;-54
2022/10/19 17:22:39;;;;;;;8.60;2.80;;;22.30;68.00;;;;;;214814;1295;22457;-54
2022/10/19 17:27:54;;;;;;;9.60;2.40;;;22.40;68.70;;;;;;214747;1276;23633;-53
2022/10/19 17:33:02;;;;;;;6.20;2.20;;;22.40;68.60;;;;;;214896;1286;25263;-56
2022/10/19 17:38:22;;;;;;;10.50;2.10;;;22.30;68.30;;;;;;214782;1280;25713;-54
2022/10/19 17:43:33;;;;;;;6.90;2.20;;;22.30;68.40;;;;;;214591;1284;22585;-57
2022/10/19 17:48:49;;;;;;;6.70;1.70;;;22.30;67.80;;;;;;214748;1286;24015;-54
2022/10/19 17:54:16;;;;;;;15.90;2.70;;;22.30;68.20;;;;;;214865;1281;23705;-55
2022/10/19 17:59:45;;;;;;;18.60;2.90;;;22.30;68.20;;;;;;214842;1281;22591;-56
2022/10/19 18:05:12;;;;;;;14.50;2.30;;;22.30;68.50;;;;;;214782;1300;26476;-55
2022/10/19 18:10:54;;;;;;;15.10;3.00;;;22.30;68.40;;;;;;214266;1292;665502;-54
2022/10/19 18:16:26;;;;;;;20.50;3.50;;;22.20;69.00;;;;;;214837;1287;23883;-55
2022/10/19 18:21:52;;;;;;;16.10;3.30;;;22.30;67.80;;;;;;214895;1282;23047;-58
2022/10/19 18:27:40;;;;;;;15.40;3.00;;;22.30;68.30;;;;;;214785;1291;25360;-58
2022/10/19 18:32:51;;;;;;;10.60;2.80;;;22.30;67.50;;;;;;214768;1278;22472;-58
2022/10/19 18:38:05;;;;;;;8.30;2.10;;;22.30;67.30;;;;;;214851;1281;22517;-57
2022/10/19 18:43:20;;;;;;;23.60;3.80;;;22.30;67.10;;;;;;214876;1292;22551;-56
2022/10/19 18:48:28;;;;;;;20.20;3.80;;;22.30;67.20;;;;;;214591;1295;22465;-56
2022/10/19 18:53:38;;;;;;;11.70;3.10;;;22.20;66.40;;;;;;214812;1281;23725;-57
2022/10/19 18:58:48;;;;;;;16.30;3.40;;;22.30;66.60;;;;;;214890;1286;24761;-58
2022/10/19 19:04:11;;;;;;;10.30;3.50;;;22.20;66.90;;;;;;214948;1284;23022;-60
2022/10/19 19:09:20;;;;;;;14.60;3.50;;;22.20;66.50;;;;;;214856;1278;24242;-60
2022/10/19 19:14:40;;;;;;;9.80;2.70;;;22.20;66.50;;;;;;214689;1285;26464;-62
2022/10/19 19:20:07;;;;;;;15.90;3.90;;;22.20;66.50;;;;;;214611;1287;24234;-56
2022/10/19 19:25:19;;;;;;;10.70;3.10;;;22.20;67.80;;;;;;214907;1297;22466;-56
2022/10/19 19:30:23;;;;;;;13.30;3.90;;;22.20;67.80;;;;;;214748;1286;22886;-55
2022/10/19 19:35:46;;;;;;;17.30;3.90;;;22.20;67.70;;;;;;215101;1294;25281;-55
2022/10/19 19:41:04;;;;;;;15.20;3.50;;;22.10;67.60;;;;;;214956;1286;25354;-57
2022/10/19 19:46:12;;;;;;;14.20;3.00;;;22.10;68.20;;;;;;214948;1286;22471;-58
2022/10/19 19:51:18;;;;;;;9.60;3.10;;;22.10;67.70;;;;;;215003;1285;24209;-50
2022/10/19 19:56:30;;;;;;;7.20;3.10;;;22.00;67.70;;;;;;214949;1278;24193;-50
2022/10/19 20:01:38;;;;;;;10.90;3.50;;;22.00;67.80;;;;;;214990;1284;22488;-53
2022/10/19 20:06:43;;;;;;;15.20;3.70;;;22.00;67.70;;;;;;215052;1290;22456;-51
2022/10/19 20:11:52;;;;;;;8.30;3.00;;;22.00;68.10;;;;;;214996;1292;22459;-50
2022/10/19 20:16:56;;;;;;;12.10;3.20;;;22.00;67.80;;;;;;214682;1284;22709;-53
2022/10/19 20:22:00;;;;;;;13.50;3.60;;;22.00;67.90;;;;;;214570;1287;22588;-52
2022/10/19 20:27:12;;;;;;;10.00;3.50;;;22.00;68.30;;;;;;214672;1283;22469;-56
2022/10/19 20:32:19;;;;;;;5.60;2.70;;;21.90;68.20;;;;;;214812;1289;22496;-49
2022/10/19 20:37:27;;;;;;;6.10;2.50;;;21.90;68.20;;;;;;214603;1291;22535;-51
2022/10/19 20:42:35;;;;;;;11.70;2.90;;;21.90;68.70;;;;;;214717;1275;23565;-52
2022/10/19 20:47:39;;;;;;;10.80;3.00;;;21.90;71.30;;;;;;214634;1281;23063;-54
2022/10/19 20:52:50;;;;;;;11.00;3.30;;;22.00;71.20;;;;;;214683;1285;25361;-50
2022/10/19 20:57:54;;;;;;;6.50;2.40;;;22.00;71.10;;;;;;214659;1287;23608;-52
2022/10/19 21:03:00;;;;;;;7.70;2.90;;;22.00;70.90;;;;;;214509;1289;22474;-54
2022/10/19 21:08:06;;;;;;;12.00;3.30;;;22.00;70.80;;;;;;214693;1280;25307;-53
2022/10/19 21:13:10;;;;;;;10.00;3.40;;;21.90;71.40;;;;;;214602;1285;24259;-53
2022/10/19 21:18:13;;;;;;;11.60;3.50;;;21.90;71.10;;;;;;214614;1291;22608;-52
2022/10/19 21:23:19;;;;;;;19.00;3.70;;;21.90;71.30;;;;;;215086;1284;24235;-52
2022/10/19 21:28:25;;;;;;;8.30;3.00;;;21.80;70.90;;;;;;215055;1286;22590;-51
2022/10/19 21:33:29;;;;;;;12.10;3.80;;;21.80;71.30;;;;;;214797;1300;26613;-50
2022/10/19 21:38:34;;;;;;;9.70;3.00;;;21.80;71.00;;;;;;215121;1300;23881;-50
2022/10/19 21:43:38;;;;;;;8.60;3.10;;;21.70;71.00;;;;;;214955;1294;22886;-52
2022/10/19 21:48:42;;;;;;;9.70;3.30;;;21.70;71.00;;;;;;215132;1287;22464;-54
2022/10/19 21:53:46;;;;;;;7.20;2.40;;;21.70;71.40;;;;;;215103;1288;23043;-54
2022/10/19 21:58:52;;;;;;;9.80;3.10;;;21.60;71.00;;;;;;214946;1293;25239;-52
2022/10/19 22:04:01;;;;;;;7.90;3.00;;;21.60;71.10;;;;;;215096;1280;24234;-50
2022/10/19 22:09:07;;;;;;;9.70;3.70;;;21.60;71.10;;;;;;214794;1294;22464;-52
2022/10/19 22:14:13;;;;;;;6.70;3.20;;;21.60;71.40;;;;;;215021;1300;23248;-54
2022/10/19 22:19:20;;;;;;;5.00;2.70;;;21.60;71.10;;;;;;215073;1286;23854;-53
2022/10/19 22:24:30;;;;;;;8.70;3.10;;;21.50;71.20;;;;;;214998;1291;22538;-54
2022/10/19 22:29:34;;;;;;;11.70;3.30;;;21.50;71.50;;;;;;214988;1292;23888;-52
2022/10/19 22:34:38;;;;;;;12.30;3.90;;;21.50;71.10;;;;;;214911;1299;22567;-53
2022/10/19 22:39:42;;;;;;;9.60;3.80;;;21.50;71.10;;;;;;216200;1287;22483;-53
2022/10/19 22:44:45;;;;;;;10.20;3.40;;;21.50;71.00;;;;;;214896;1282;24148;-48
2022/10/19 22:49:49;;;;;;;8.90;3.40;;;21.40;71.00;;;;;;215108;1295;22466;-52
2022/10/19 22:54:52;;;;;;;7.90;3.10;;;21.40;71.00;;;;;;215018;1287;24355;-52
2022/10/19 22:59:56;;;;;;;8.50;3.30;;;21.40;71.10;;;;;;214932;1300;22483;-53
2022/10/19 23:04:59;;;;;;;6.10;3.10;;;21.40;71.30;;;;;;214940;1288;22466;-51
2022/10/19 23:10:04;;;;;;;6.20;3.10;;;21.50;71.40;;;;;;214690;1300;26579;-52
2022/10/19 23:15:08;;;;;;;7.00;2.90;;;21.40;71.00;;;;;;214986;1282;24220;-53
2022/10/19 23:20:12;;;;;;;7.20;3.00;;;21.40;71.10;;;;;;215100;1292;24382;-51
2022/10/19 23:25:16;;;;;;;5.70;2.30;;;21.40;71.20;;;;;;214773;1291;22475;-54
2022/10/19 23:30:19;;;;;;;6.60;3.00;;;21.40;71.40;;;;;;215030;1280;22472;-52
2022/10/19 23:35:23;;;;;;;6.70;3.20;;;21.40;71.70;;;;;;215103;1287;22466;-52
2022/10/19 23:40:26;;;;;;;5.00;2.60;;;21.40;71.30;;;;;;214971;1300;25390;-55
2022/10/19 23:45:30;;;;;;;5.80;3.10;;;21.40;71.50;;;;;;214865;1291;22476;-55
2022/10/19 23:50:33;;;;;;;5.20;2.60;;;21.40;71.60;;;;;;215011;1300;25433;-51
2022/10/19 23:55:37;;;;;;;7.10;3.30;;;21.40;71.70;;;;;;214967;1291;22470;-52
